createdAt,value
2017-07-23T00:01:52.713Z,82.80
2017-07-23T00:04:20.238Z,82.90
2017-07-23T00:06:47.787Z,83.00
2017-07-23T00:09:15.369Z,83.00
2017-07-23T00:11:42.894Z,83.70
2017-07-23T00:14:10.812Z,83.10
2017-07-23T00:16:38.366Z,83.20
2017-07-23T00:19:05.879Z,83.20
2017-07-23T00:21:33.426Z,83.20
2017-07-23T00:24:00.982Z,83.30
2017-07-23T00:26:28.840Z,83.30
2017-07-23T00:28:57.153Z,83.40
2017-07-23T00:31:24.689Z,83.30
2017-07-23T00:33:52.252Z,83.40
2017-07-23T00:36:19.805Z,83.40
2017-07-23T00:38:47.738Z,83.50
2017-07-23T00:41:15.268Z,83.70
2017-07-23T00:43:42.800Z,83.80
2017-07-23T00:46:10.370Z,83.90
2017-07-23T00:48:37.922Z,83.90
2017-07-23T00:51:06.540Z,84.00
2017-07-23T00:53:34.060Z,84.00
2017-07-23T00:56:02.357Z,84.10
2017-07-23T00:58:29.919Z,84.00
2017-07-23T01:00:57.461Z,84.10
2017-07-23T01:03:25.392Z,84.20
2017-07-23T01:05:52.911Z,84.20
2017-07-23T01:08:20.435Z,84.20
2017-07-23T01:10:47.993Z,84.10
2017-07-23T01:13:15.503Z,84.10
2017-07-23T01:15:43.320Z,84.20
2017-07-23T01:18:10.849Z,84.20
2017-07-23T01:20:38.381Z,84.20
2017-07-23T01:23:05.942Z,84.10
2017-07-23T01:25:33.468Z,84.10
2017-07-23T01:28:02.120Z,85.00
2017-07-23T01:30:29.650Z,84.20
2017-07-23T01:32:57.158Z,84.30
2017-07-23T01:35:24.729Z,84.30
2017-07-23T01:37:52.285Z,84.20
2017-07-23T01:40:20.108Z,84.30
2017-07-23T01:42:47.650Z,84.40
2017-07-23T01:45:15.187Z,84.30
2017-07-23T01:47:43.519Z,84.40
2017-07-23T01:50:11.047Z,84.50
2017-07-23T01:52:38.948Z,84.60
2017-07-23T01:55:06.478Z,84.50
2017-07-23T01:57:34.027Z,84.50
2017-07-23T02:00:01.620Z,84.40
2017-07-23T02:02:29.633Z,84.50
2017-07-23T02:04:57.569Z,84.50
2017-07-23T02:07:25.091Z,84.40
2017-07-23T02:09:52.629Z,84.40
2017-07-23T02:12:20.975Z,84.40
2017-07-23T02:14:48.512Z,84.40
2017-07-23T02:17:16.386Z,84.50
2017-07-23T02:19:43.918Z,84.60
2017-07-23T02:22:11.463Z,84.60
2017-07-23T02:24:39.014Z,84.60
2017-07-23T02:27:07.309Z,85.30
2017-07-23T02:29:35.247Z,84.70
2017-07-23T02:32:02.767Z,84.70
2017-07-23T02:34:30.297Z,84.70
2017-07-23T02:36:57.856Z,84.60
2017-07-23T02:39:26.150Z,84.70
2017-07-23T02:41:53.978Z,84.60
2017-07-23T02:44:21.502Z,84.70
2017-07-23T02:46:49.028Z,84.60
2017-07-23T02:49:16.573Z,84.70
2017-07-23T02:51:44.868Z,84.80
2017-07-23T02:54:12.765Z,84.80
2017-07-23T02:56:40.280Z,84.80
2017-07-23T02:59:07.822Z,84.80
2017-07-23T03:01:35.389Z,84.80
2017-07-23T03:04:02.913Z,84.80
2017-07-23T03:06:30.762Z,84.90
2017-07-23T03:08:58.302Z,84.80
2017-07-23T03:11:25.849Z,84.80
2017-07-23T03:13:54.179Z,84.80
2017-07-23T03:16:21.713Z,84.80
2017-07-23T03:18:49.705Z,84.70
2017-07-23T03:21:17.235Z,84.70
2017-07-23T03:23:44.765Z,85.60
2017-07-23T03:26:12.316Z,85.00
2017-07-23T03:28:39.854Z,85.10
2017-07-23T03:31:07.735Z,85.10
2017-07-23T03:33:35.260Z,85.10
2017-07-23T03:36:02.825Z,85.00
2017-07-23T03:38:30.389Z,85.00
2017-07-23T03:40:57.918Z,85.00
2017-07-23T03:43:25.876Z,85.10
2017-07-23T03:45:54.175Z,85.00
2017-07-23T03:48:21.707Z,84.90
2017-07-23T03:50:50.042Z,85.00
2017-07-23T03:53:17.573Z,85.00
2017-07-23T03:55:45.400Z,85.00
2017-07-23T03:58:12.934Z,85.00
2017-07-23T04:00:40.475Z,84.80
2017-07-23T04:03:08.041Z,84.80
2017-07-23T04:05:35.569Z,84.60
2017-07-23T04:08:03.470Z,84.60
2017-07-23T04:10:31.014Z,84.40
2017-07-23T04:12:58.554Z,84.30
2017-07-23T04:15:26.870Z,84.10
2017-07-23T04:17:54.410Z,84.10
2017-07-23T04:20:22.319Z,84.10
2017-07-23T04:22:49.855Z,83.90
2017-07-23T04:25:17.381Z,83.80
2017-07-23T04:27:44.957Z,83.80
2017-07-23T04:30:12.496Z,83.70
2017-07-23T04:32:40.456Z,83.50
2017-07-23T04:35:07.977Z,83.30
2017-07-23T04:37:35.519Z,83.70
2017-07-23T04:40:03.070Z,82.80
2017-07-23T04:42:30.624Z,82.60
2017-07-23T04:44:58.513Z,82.30
2017-07-23T04:47:26.041Z,82.20
2017-07-23T04:49:53.582Z,82.00
2017-07-23T04:52:21.913Z,81.70
2017-07-23T04:54:49.451Z,81.70
2017-07-23T04:57:17.453Z,81.60
2017-07-23T04:59:44.993Z,81.60
2017-07-23T05:02:12.518Z,81.40
2017-07-23T05:04:40.102Z,81.40
2017-07-23T05:07:07.636Z,81.30
2017-07-23T05:09:35.462Z,81.10
2017-07-23T05:12:02.981Z,81.00
2017-07-23T05:14:30.517Z,80.80
2017-07-23T05:16:59.852Z,81.00
2017-07-23T05:19:27.381Z,80.60
2017-07-23T05:21:56.023Z,80.20
2017-07-23T05:24:23.555Z,80.20
2017-07-23T05:26:51.080Z,80.10
2017-07-23T05:29:18.619Z,79.90
2017-07-23T05:31:46.162Z,79.90
2017-07-23T05:34:14.048Z,79.70
2017-07-23T05:36:41.579Z,79.30
2017-07-23T05:39:09.110Z,78.90
2017-07-23T05:41:36.665Z,78.60
2017-07-23T05:44:05.639Z,77.90
2017-07-23T05:46:33.459Z,77.80
2017-07-23T05:49:00.985Z,77.80
2017-07-23T05:51:29.280Z,77.80
2017-07-23T05:53:56.853Z,77.90
2017-07-23T05:56:24.390Z,78.60
2017-07-23T05:58:52.184Z,77.90
2017-07-23T06:01:19.746Z,78.60
2017-07-23T06:03:47.287Z,77.60
2017-07-23T06:06:14.839Z,77.50
2017-07-23T06:08:43.353Z,77.40
2017-07-23T06:11:11.201Z,77.30
2017-07-23T06:13:38.729Z,77.10
2017-07-23T06:16:07.043Z,77.80
2017-07-23T06:18:34.589Z,77.60
2017-07-23T06:21:02.106Z,76.50
2017-07-23T06:23:30.011Z,76.20
2017-07-23T06:25:57.558Z,75.90
2017-07-23T06:28:25.858Z,73.30
2017-07-23T06:30:54.111Z,73.20
2017-07-23T06:33:22.427Z,72.20
2017-07-23T06:35:50.250Z,72.20
2017-07-23T06:38:17.786Z,71.80
2017-07-23T06:40:45.318Z,71.40
2017-07-23T06:43:12.863Z,70.60
2017-07-23T06:45:40.405Z,69.50
2017-07-23T06:48:08.330Z,68.40
2017-07-23T06:50:35.851Z,68.10
2017-07-23T06:53:03.402Z,67.70
2017-07-23T06:55:30.965Z,67.50
2017-07-23T06:57:58.514Z,66.90
2017-07-23T07:00:27.152Z,66.10
2017-07-23T07:02:54.673Z,66.00
2017-07-23T07:05:22.227Z,65.80
2017-07-23T07:07:49.814Z,65.80
2017-07-23T07:10:17.336Z,65.70
2017-07-23T07:12:45.976Z,65.80
2017-07-23T07:15:13.504Z,65.80
2017-07-23T07:17:41.023Z,66.10
2017-07-23T07:20:08.570Z,66.40
2017-07-23T07:22:36.107Z,66.20
2017-07-23T07:25:03.991Z,66.10
2017-07-23T07:27:31.524Z,66.40
2017-07-23T07:29:59.068Z,66.30
2017-07-23T07:32:26.610Z,66.50
2017-07-23T07:34:54.148Z,66.50
2017-07-23T07:37:22.106Z,66.50
2017-07-23T07:39:49.637Z,66.70
2017-07-23T07:42:17.168Z,66.90
2017-07-23T07:44:45.490Z,67.20
2017-07-23T07:47:13.017Z,67.10
2017-07-23T07:49:40.825Z,67.10
2017-07-23T07:52:08.392Z,67.10
2017-07-23T07:54:36.031Z,67.30
2017-07-23T07:57:03.580Z,67.40
2017-07-23T07:59:31.114Z,67.30
2017-07-23T08:01:59.757Z,67.80
2017-07-23T08:04:28.341Z,67.90
2017-07-23T08:06:56.793Z,68.20
2017-07-23T08:09:24.363Z,68.30
2017-07-23T08:11:51.926Z,68.10
2017-07-23T08:14:19.791Z,68.30
2017-07-23T08:16:47.316Z,68.40
2017-07-23T08:19:14.857Z,69.00
2017-07-23T08:21:42.404Z,69.20
2017-07-23T08:24:09.948Z,69.90
2017-07-23T08:26:37.773Z,69.60
2017-07-23T08:29:05.342Z,69.50
2017-07-23T08:31:32.869Z,69.70
2017-07-23T08:34:00.441Z,70.00
2017-07-23T08:36:27.982Z,69.50
2017-07-23T08:38:55.845Z,69.50
2017-07-23T08:41:23.397Z,69.60
2017-07-23T08:43:50.935Z,69.50
2017-07-23T08:46:18.489Z,69.20
2017-07-23T08:48:46.044Z,68.80
2017-07-23T08:51:13.915Z,68.80
2017-07-23T08:53:41.467Z,69.10
2017-07-23T08:56:09.045Z,68.40
2017-07-23T08:58:36.617Z,68.20
2017-07-23T09:01:04.163Z,68.00
2017-07-23T09:03:32.769Z,67.70
2017-07-23T09:06:00.305Z,67.70
2017-07-23T09:08:27.861Z,67.80
2017-07-23T09:10:55.428Z,67.70
2017-07-23T09:13:22.976Z,67.50
2017-07-23T09:15:50.776Z,67.40
2017-07-23T09:18:18.330Z,67.10
2017-07-23T09:20:45.880Z,67.20
2017-07-23T09:23:13.455Z,67.40
2017-07-23T09:25:40.999Z,67.30
2017-07-23T09:28:08.919Z,67.30
2017-07-23T09:30:36.705Z,67.10
2017-07-23T09:33:04.249Z,66.30
2017-07-23T09:35:31.850Z,66.10
2017-07-23T09:37:59.375Z,65.90
2017-07-23T09:40:28.077Z,65.40
2017-07-23T09:42:55.603Z,65.40
2017-07-23T09:45:23.952Z,65.10
2017-07-23T09:47:51.531Z,65.20
2017-07-23T09:50:19.073Z,65.30
2017-07-23T09:52:46.946Z,65.30
2017-07-23T09:55:14.463Z,64.80
2017-07-23T09:57:42.017Z,64.60
2017-07-23T10:00:09.580Z,64.70
2017-07-23T10:02:37.120Z,64.50
2017-07-23T10:05:05.751Z,63.90
2017-07-23T10:07:33.288Z,63.90
2017-07-23T10:10:00.831Z,63.70
2017-07-23T10:12:29.161Z,63.80
2017-07-23T10:14:56.719Z,63.80
2017-07-23T10:17:24.598Z,64.20
2017-07-23T10:19:52.141Z,63.90
2017-07-23T10:22:19.675Z,63.80
2017-07-23T10:24:47.264Z,63.90
2017-07-23T10:27:14.822Z,63.70
2017-07-23T10:29:42.659Z,63.60
2017-07-23T10:32:10.208Z,63.80
2017-07-23T10:34:38.527Z,62.80
2017-07-23T10:37:06.124Z,62.80
2017-07-23T10:39:33.658Z,63.20
2017-07-23T10:42:01.531Z,63.50
2017-07-23T10:44:29.060Z,63.60
2017-07-23T10:46:56.608Z,63.60
2017-07-23T10:49:24.180Z,63.90
2017-07-23T10:51:51.712Z,64.60
2017-07-23T10:54:20.419Z,65.20
2017-07-23T10:56:47.963Z,65.20
2017-07-23T10:59:15.530Z,66.00
2017-07-23T11:01:43.112Z,66.20
2017-07-23T11:04:10.687Z,66.10
2017-07-23T11:06:38.537Z,66.20
2017-07-23T11:09:06.097Z,65.70
2017-07-23T11:11:33.630Z,64.90
2017-07-23T11:14:01.231Z,64.60
2017-07-23T11:16:28.788Z,63.60
2017-07-23T11:18:56.664Z,63.20
2017-07-23T11:21:24.227Z,62.30
2017-07-23T11:23:51.794Z,60.00
2017-07-23T11:26:19.359Z,59.80
2017-07-23T11:28:46.892Z,59.80
2017-07-23T11:31:14.751Z,59.50
2017-07-23T11:33:42.285Z,59.20
2017-07-23T11:36:10.606Z,57.90
2017-07-23T11:38:38.208Z,57.90
2017-07-23T11:41:05.771Z,57.20
2017-07-23T11:43:33.622Z,56.10
2017-07-23T11:46:01.194Z,54.90
2017-07-23T11:48:28.720Z,53.10
2017-07-23T11:50:56.345Z,52.40
2017-07-23T11:53:23.881Z,51.70
2017-07-23T11:55:51.718Z,50.90
2017-07-23T11:58:19.269Z,51.00
2017-07-23T12:00:46.827Z,50.80
2017-07-23T12:03:14.401Z,50.80
2017-07-23T12:05:41.944Z,51.10
2017-07-23T12:08:09.854Z,51.60
2017-07-23T12:10:37.368Z,51.90
2017-07-23T12:13:04.934Z,51.50
2017-07-23T12:15:32.506Z,51.50
2017-07-23T12:18:00.055Z,50.70
2017-07-23T12:20:27.966Z,50.60
2017-07-23T12:22:55.514Z,49.60
2017-07-23T12:25:23.072Z,48.90
2017-07-23T12:27:50.639Z,48.80
2017-07-23T12:30:18.190Z,47.80
2017-07-23T12:32:46.053Z,47.80
2017-07-23T12:35:13.598Z,48.00
2017-07-23T12:37:41.127Z,47.10
2017-07-23T12:40:08.737Z,46.20
2017-07-23T12:42:36.266Z,45.80
2017-07-23T12:45:04.889Z,45.50
2017-07-23T12:47:32.467Z,45.40
2017-07-23T12:50:00.034Z,45.10
2017-07-23T12:52:27.626Z,44.70
2017-07-23T12:54:55.177Z,43.80
2017-07-23T12:57:23.797Z,43.30
2017-07-23T12:59:51.351Z,43.30
2017-07-23T13:02:18.890Z,43.90
2017-07-23T13:04:46.466Z,42.60
2017-07-23T13:07:14.007Z,42.20
2017-07-23T13:09:42.481Z,41.60
2017-07-23T13:12:10.794Z,41.70
2017-07-23T13:14:38.698Z,41.60
2017-07-23T13:17:06.238Z,40.50
2017-07-23T13:19:33.789Z,39.30
2017-07-23T13:22:01.386Z,38.00
2017-07-23T13:24:28.958Z,37.20
2017-07-23T13:26:56.806Z,36.60
2017-07-23T13:29:24.350Z,35.80
2017-07-23T13:31:51.880Z,36.40
2017-07-23T13:34:19.462Z,35.60
2017-07-23T13:36:47.019Z,36.10
2017-07-23T13:39:14.885Z,36.90
2017-07-23T13:41:42.423Z,37.50
2017-07-23T13:44:09.995Z,38.40
2017-07-23T13:46:37.559Z,39.20
2017-07-23T13:49:05.098Z,39.70
2017-07-23T13:51:32.922Z,40.30
2017-07-23T13:54:00.449Z,40.70
2017-07-23T13:56:27.975Z,39.80
2017-07-23T13:58:56.318Z,40.40
2017-07-23T14:01:23.858Z,40.40
2017-07-23T14:03:51.719Z,40.50
2017-07-23T14:06:19.297Z,40.70
2017-07-23T14:08:46.878Z,41.20
2017-07-23T14:11:14.448Z,42.20
2017-07-23T14:13:42.037Z,42.60
2017-07-23T14:16:09.883Z,43.40
2017-07-23T14:18:38.181Z,44.40
2017-07-23T14:21:06.492Z,44.40
2017-07-23T14:23:34.091Z,44.40
2017-07-23T14:26:01.636Z,44.80
2017-07-23T14:28:29.469Z,44.60
2017-07-23T14:30:57.007Z,44.60
2017-07-23T14:33:24.534Z,43.60
2017-07-23T14:35:52.125Z,42.80
2017-07-23T14:38:19.642Z,42.70
2017-07-23T14:40:47.503Z,42.20
2017-07-23T14:43:15.054Z,42.00
2017-07-23T14:45:42.587Z,41.80
2017-07-23T14:48:10.142Z,41.90
2017-07-23T14:50:37.686Z,42.30
2017-07-23T14:53:06.274Z,43.50
2017-07-23T14:55:33.825Z,43.50
2017-07-23T14:58:02.138Z,41.80
2017-07-23T15:00:29.686Z,41.70
2017-07-23T15:02:57.242Z,40.60
2017-07-23T15:05:25.102Z,38.50
2017-07-23T15:07:52.648Z,37.60
2017-07-23T15:10:20.965Z,36.00
2017-07-23T15:12:48.556Z,36.00
2017-07-23T15:15:16.114Z,35.70
2017-07-23T15:17:43.965Z,36.10
2017-07-23T15:20:11.505Z,35.80
2017-07-23T15:22:39.029Z,35.20
2017-07-23T15:25:06.604Z,34.80
2017-07-23T15:27:34.147Z,35.10
2017-07-23T15:30:02.008Z,35.40
2017-07-23T15:32:29.552Z,35.00
2017-07-23T15:34:57.117Z,34.80
2017-07-23T15:37:24.664Z,35.10
2017-07-23T15:39:52.212Z,35.20
2017-07-23T15:42:20.108Z,35.60
2017-07-23T15:44:47.642Z,36.30
2017-07-23T15:47:15.202Z,37.20
2017-07-23T15:49:42.795Z,37.80
2017-07-23T15:52:10.340Z,38.00
2017-07-23T15:54:38.208Z,38.70
2017-07-23T15:57:05.762Z,39.20
2017-07-23T15:59:33.305Z,39.40
2017-07-23T16:02:00.893Z,40.00
2017-07-23T16:04:28.422Z,39.80
2017-07-23T16:06:56.339Z,40.10
2017-07-23T16:09:23.884Z,40.60
2017-07-23T16:11:51.429Z,40.70
2017-07-23T16:14:19.009Z,40.60
2017-07-23T16:16:46.554Z,40.70
2017-07-23T16:19:14.418Z,40.70
2017-07-23T16:21:41.997Z,41.70
2017-07-23T16:24:09.533Z,40.70
2017-07-23T16:26:37.093Z,40.70
2017-07-23T16:29:04.628Z,40.50
2017-07-23T16:31:32.479Z,40.40
2017-07-23T16:34:00.030Z,40.30
2017-07-23T16:36:27.593Z,40.20
2017-07-23T16:38:55.158Z,40.30
2017-07-23T16:41:23.476Z,40.40
2017-07-23T16:43:51.352Z,40.40
2017-07-23T16:46:18.944Z,40.60
2017-07-23T16:48:46.476Z,41.00
2017-07-23T16:51:14.058Z,40.90
2017-07-23T16:53:41.593Z,40.50
2017-07-23T16:56:09.473Z,40.10
2017-07-23T16:58:37.007Z,39.50
2017-07-23T17:01:04.575Z,38.80
2017-07-23T17:03:32.151Z,38.30
2017-07-23T17:05:59.700Z,38.20
2017-07-23T17:08:27.581Z,38.00
2017-07-23T17:10:55.149Z,37.80
2017-07-23T17:13:22.724Z,37.80
2017-07-23T17:15:50.317Z,37.80
2017-07-23T17:18:17.880Z,38.10
2017-07-23T17:20:46.519Z,39.00
2017-07-23T17:23:14.072Z,39.00
2017-07-23T17:25:41.656Z,39.30
2017-07-23T17:28:09.265Z,40.00
2017-07-23T17:30:36.834Z,40.20
2017-07-23T17:33:04.705Z,40.70
2017-07-23T17:35:32.288Z,41.40
2017-07-23T17:37:59.843Z,41.80
2017-07-23T17:40:27.418Z,42.20
2017-07-23T17:42:54.947Z,42.20
2017-07-23T17:45:22.886Z,42.60
2017-07-23T17:47:50.490Z,42.80
2017-07-23T17:50:18.047Z,43.20
2017-07-23T17:52:45.636Z,43.40
2017-07-23T17:55:13.174Z,43.70
2017-07-23T17:57:41.019Z,44.00
2017-07-23T18:00:08.601Z,44.20
2017-07-23T18:02:36.175Z,44.40
2017-07-23T18:05:03.759Z,44.60
2017-07-23T18:07:31.298Z,44.90
2017-07-23T18:09:59.187Z,45.20
2017-07-23T18:12:26.714Z,45.00
2017-07-23T18:14:54.266Z,45.00
2017-07-23T18:17:21.831Z,45.00
2017-07-23T18:19:49.381Z,44.80
2017-07-23T18:22:17.241Z,44.50
2017-07-23T18:24:44.785Z,44.50
2017-07-23T18:27:13.087Z,44.90
2017-07-23T18:29:40.673Z,44.90
2017-07-23T18:32:08.196Z,45.30
2017-07-23T18:34:36.010Z,46.10
2017-07-23T18:37:03.549Z,46.70
2017-07-23T18:39:31.107Z,46.70
2017-07-23T18:41:58.665Z,47.10
2017-07-23T18:44:26.211Z,47.50
2017-07-23T18:46:53.795Z,47.70
2017-07-23T18:49:21.360Z,48.00
2017-07-23T18:51:49.210Z,48.20
2017-07-23T18:54:16.738Z,48.30
2017-07-23T18:56:45.042Z,48.90
2017-07-23T18:59:12.650Z,49.00
2017-07-23T19:01:40.190Z,49.60
2017-07-23T19:04:08.287Z,49.80
2017-07-23T19:06:35.843Z,49.80
2017-07-23T19:09:04.195Z,50.60
2017-07-23T19:11:31.731Z,50.60
2017-07-23T19:13:59.646Z,50.90
2017-07-23T19:16:27.235Z,51.40
2017-07-23T19:18:55.726Z,51.90
2017-07-23T19:21:23.289Z,51.90
2017-07-23T19:23:50.904Z,52.00
2017-07-23T19:26:18.757Z,52.10
2017-07-23T19:28:46.306Z,52.40
2017-07-23T19:31:15.789Z,52.60
2017-07-23T19:33:43.360Z,52.90
2017-07-23T19:36:10.930Z,53.20
2017-07-23T19:38:38.826Z,53.40
2017-07-23T19:41:06.366Z,53.70
2017-07-23T19:43:33.905Z,54.10
2017-07-23T19:46:01.470Z,54.30
2017-07-23T19:48:29.048Z,54.40
2017-07-23T19:50:57.013Z,54.60
2017-07-23T19:53:24.556Z,54.60
2017-07-23T19:55:52.110Z,54.60
2017-07-23T19:58:21.060Z,54.60
2017-07-23T20:00:48.604Z,54.50
2017-07-23T20:03:16.519Z,54.50
2017-07-23T20:05:44.098Z,54.30
2017-07-23T20:08:11.675Z,54.30
2017-07-23T20:10:39.252Z,54.40
2017-07-23T20:13:06.813Z,54.60
2017-07-23T20:15:34.693Z,54.70
2017-07-23T20:18:02.230Z,54.50
2017-07-23T20:20:29.789Z,54.60
2017-07-23T20:22:57.376Z,55.00
2017-07-23T20:25:24.945Z,55.00
2017-07-23T20:27:53.226Z,55.20
2017-07-23T20:30:20.761Z,55.50
2017-07-23T20:32:48.308Z,55.60
2017-07-23T20:35:16.001Z,55.70
2017-07-23T20:37:43.539Z,55.60
2017-07-23T20:40:11.574Z,55.60
2017-07-23T20:42:39.196Z,55.60
2017-07-23T20:45:06.766Z,55.90
2017-07-23T20:47:34.370Z,55.50
2017-07-23T20:50:01.909Z,55.10
2017-07-23T20:52:30.536Z,55.70
2017-07-23T20:54:59.141Z,55.70
2017-07-23T20:57:26.967Z,55.80
2017-07-23T20:59:54.804Z,55.90
2017-07-23T21:02:22.394Z,56.00
2017-07-23T21:04:49.993Z,56.00
2017-07-23T21:07:17.560Z,56.00
2017-07-23T21:09:45.414Z,56.10
2017-07-23T21:12:12.962Z,55.50
2017-07-23T21:14:40.519Z,55.90
2017-07-23T21:17:08.226Z,55.90
2017-07-23T21:19:35.771Z,55.50
2017-07-23T21:22:03.668Z,55.20
2017-07-23T21:24:31.999Z,55.70
2017-07-23T21:26:59.532Z,55.20
2017-07-23T21:29:27.132Z,55.30
2017-07-23T21:31:54.672Z,54.70
2017-07-23T21:34:22.662Z,53.90
2017-07-23T21:36:50.325Z,53.80
2017-07-23T21:39:17.875Z,53.80
2017-07-23T21:41:45.453Z,53.70
2017-07-23T21:44:13.021Z,53.60
2017-07-23T21:46:40.705Z,53.40
2017-07-23T21:49:09.047Z,53.10
2017-07-23T21:51:36.626Z,53.20
2017-07-23T21:54:04.195Z,52.80
2017-07-23T21:56:31.758Z,52.50
2017-07-23T21:58:59.292Z,52.30
2017-07-23T22:01:26.858Z,52.00
2017-07-23T22:03:54.412Z,51.80
2017-07-23T22:06:21.982Z,51.50
2017-07-23T22:08:49.523Z,51.40
2017-07-23T22:11:17.072Z,51.20
2017-07-23T22:13:44.591Z,51.00
2017-07-23T22:16:13.222Z,50.70
2017-07-23T22:18:40.755Z,50.80
2017-07-23T22:21:08.333Z,50.70
2017-07-23T22:23:35.934Z,50.50
2017-07-23T22:26:03.493Z,50.40
2017-07-23T22:28:31.458Z,50.50
2017-07-23T22:30:59.013Z,50.50
2017-07-23T22:33:26.536Z,50.80
2017-07-23T22:35:55.016Z,51.20
2017-07-23T22:38:22.542Z,51.40
2017-07-23T22:40:50.073Z,51.40
2017-07-23T22:43:17.940Z,51.30
2017-07-23T22:45:45.494Z,51.40
2017-07-23T22:48:13.041Z,51.70
2017-07-23T22:50:40.593Z,51.10
2017-07-23T22:53:08.180Z,50.80
2017-07-23T22:55:36.028Z,50.50
2017-07-23T22:58:03.536Z,50.30
2017-07-23T23:00:31.052Z,50.30
2017-07-23T23:02:58.602Z,50.20
2017-07-23T23:05:26.134Z,50.20
2017-07-23T23:07:54.113Z,50.20
2017-07-23T23:10:21.635Z,50.10
2017-07-23T23:12:49.157Z,50.20
2017-07-23T23:15:16.699Z,50.20
2017-07-23T23:17:44.253Z,50.20
2017-07-23T23:20:12.155Z,50.30
2017-07-23T23:22:39.685Z,50.30
2017-07-23T23:25:07.197Z,50.40
2017-07-23T23:27:34.784Z,50.40
2017-07-23T23:30:03.114Z,50.30
2017-07-23T23:32:30.977Z,50.30
2017-07-23T23:34:58.523Z,50.20
2017-07-23T23:37:26.076Z,50.20
2017-07-23T23:39:53.636Z,50.10
2017-07-23T23:42:21.159Z,50.00
2017-07-23T23:44:49.052Z,50.00
2017-07-23T23:47:16.638Z,50.00
2017-07-23T23:49:44.159Z,49.90
2017-07-23T23:52:12.471Z,50.70
2017-07-23T23:54:40.062Z,50.00
2017-07-23T23:57:07.893Z,49.90
2017-07-23T23:59:35.416Z,50.10
